Terminal Aerodrome Forecast
Issued by NWS

Home | Current Version | Previous Version | Graphics & Text | Print | Product List | Glossary On
Versions: 1 2 3 4 5 6 7 8 9 10 11 12 13 14
386
FTUS43 KICT 201129
TAFCNU
TAF
KCNU 201129Z 2012/2112 19005KT P6SM SKC
     FM201600 21008KT P6SM SKC
     FM210000 18005KT P6SM SKC=

USA.gov is the U.S. government's official web portal to all federal, state and local government web resources and services.